Neuburg — 5BQJ2 — position and weather

sailwx.info

Track history (hours):
 
Tides and Currents Weather Stations Pressure Air Temp Water Temp Dewpoint Dewpoint Depression Visibility Wind Speed Wind Dir Waves Ship Positions

Neuburg

Last reported at 2017-Sep-22 01:55 UTC. Time now 2017-Sep-22 06:28 UTC.
Position N 28°08' W 015°25'.

Length 142 m; draft 5.7 m.

Type: Ship (hazmat cat A). MMSI: 212740000.

Date/timePositionNaut miles runAvg speedWind from/ knotsBaromVisibWave heightAir tempDewpointWater temp
2017-Sep-22 01:55N 28°08' W 015°25'0 0.0
2017-Sep-22 01:28N 28°08' W 015°25'0 0.0
2017-Sep-22 00:58N 28°08' W 015°25'0 0.0
2017-Sep-22 00:28N 28°08' W 015°25'0 0.0
2017-Sep-21 23:58N 28°08' W 015°25'0 0.0
2017-Sep-21 23:28N 28°08' W 015°25'0 0.0
2017-Sep-21 22:58N 28°08' W 015°25'0 0.0
2017-Sep-21 22:28N 28°08' W 015°25'0 0.0
2017-Sep-21 21:58N 28°08' W 015°25'0 0.0
2017-Sep-21 21:28N 28°08' W 015°25'0 0.0
2017-Sep-21 20:58N 28°08' W 015°25'0 0.0
2017-Sep-21 20:28N 28°08' W 015°25'0 0.0
2017-Sep-21 19:58N 28°08' W 015°25'0 0.0
2017-Sep-21 19:28N 28°08' W 015°25'0 0.0
2017-Sep-21 18:58N 28°08' W 015°25'0 0.0
2017-Sep-21 18:28N 28°08' W 015°25'0 0.3
2017-Sep-21 17:59N 28°08' W 015°25'1 1.8
2017-Sep-21 17:23N 28°09' W 015°24'0 0.0
2017-Sep-21 16:53N 28°09' W 015°24'0 0.0
2017-Sep-21 16:23N 28°09' W 015°24'0 0.0
2017-Sep-21 15:53N 28°09' W 015°24'0 0.0
2017-Sep-21 15:23N 28°09' W 015°24'0 0.0
2017-Sep-21 14:53N 28°09' W 015°24'0 0.0
2017-Sep-21 14:23N 28°09' W 015°24'0 0.0
2017-Sep-21 13:53N 28°09' W 015°24'0 0.0
2017-Sep-21 13:23N 28°09' W 015°24'0 0.0
2017-Sep-21 12:56N 28°09' W 015°24'0 0.0
2017-Sep-21 12:26N 28°09' W 015°24'0 0.0
2017-Sep-21 11:56N 28°09' W 015°24'0 0.0
2017-Sep-21 11:26N 28°09' W 015°24'0 0.0
2017-Sep-21 10:41N 28°09' W 015°24'0 0.0
2017-Sep-21 10:26N 28°09' W 015°24'0 0.0
2017-Sep-21 09:56N 28°09' W 015°24'0 0.0
2017-Sep-21 09:26N 28°09' W 015°24'0 0.0
2017-Sep-21 08:56N 28°09' W 015°24'0 0.0
2017-Sep-21 08:29N 28°09' W 015°24'0 0.0
2017-Sep-21 07:59N 28°09' W 015°24'0 0.0
2017-Sep-21 07:29N 28°09' W 015°24'1 2.4
2017-Sep-21 07:00N 28°07' W 015°24'2 4.4
2017-Sep-21 06:30N 28°07' W 015°22'611.8
2017-Sep-21 06:00N 28°10' W 015°16'816.9
2017-Sep-21 05:30N 28°15' W 015°09'917.5
2017-Sep-21 05:00N 28°20' W 015°00'917.2
2017-Sep-21 04:30N 28°24' W 014°52'917.0
2017-Sep-21 04:00N 28°28' W 014°43'917.4
2017-Sep-21 03:30N 28°32' W 014°34'4416.9
2017-Sep-21 00:54N 28°49' W 013°48'717.3
2017-Sep-21 00:30N 28°52' W 013°41'917.1
2017-Sep-21 00:00N 28°56' W 013°33'2 1.1
2017-Sep-20 22:01N 28°58' W 013°32'0 0.0
2017-Sep-20 21:49N 28°58' W 013°32'0 0.0
2017-Sep-20 20:13N 28°58' W 013°32'0 0.0
2017-Sep-20 19:31N 28°58' W 013°32'0 0.0
2017-Sep-20 19:25N 28°58' W 013°32'0 0.5
2017-Sep-20 19:00N 28°58' W 013°32'4 7.7
2017-Sep-20 18:31N 28°55' W 013°35'815.6
2017-Sep-20 18:00N 28°51' W 013°42'3516.0
2017-Sep-20 15:47N 28°37' W 014°19'515.8
2017-Sep-20 15:28N 28°35' W 014°24'815.9
2017-Sep-20 15:00N 28°31' W 014°32'1615.9
2017-Sep-20 14:01N 28°24' W 014°48'816.1
2017-Sep-20 13:31N 28°20' W 014°56'815.9
2017-Sep-20 13:01N 28°17' W 015°04'816.3
2017-Sep-20 12:31N 28°13' W 015°12'816.4
2017-Sep-20 12:01N 28°09' W 015°20'4 8.6
2017-Sep-20 11:30N 28°08' W 015°25'0 0.0
2017-Sep-20 10:53N 28°08' W 015°25'0 0.0
2017-Sep-20 10:23N 28°08' W 015°25'0 0.0
2017-Sep-20 09:53N 28°08' W 015°25'0 0.0
2017-Sep-20 09:26N 28°08' W 015°25'0 0.0
2017-Sep-20 08:56N 28°08' W 015°25'0 0.0
2017-Sep-20 08:26N 28°08' W 015°25'0 0.0
2017-Sep-20 07:56N 28°08' W 015°25'0 0.0
2017-Sep-20 07:26N 28°08' W 015°25'0 0.0
2017-Sep-20 06:56N 28°08' W 015°25'0 0.0
2017-Sep-20 06:26N 28°08' W 015°25'0 0.0
2017-Sep-20 05:56N 28°08' W 015°25'0 0.0
2017-Sep-20 05:26N 28°08' W 015°25'0 0.0
2017-Sep-20 05:00N 28°08' W 015°25'2 3.8
2017-Sep-20 04:30N 28°07' W 015°23'612.7
2017-Sep-20 04:00N 28°13' W 015°26'816.2
2017-Sep-20 03:30N 28°15' W 015°35'816.2
2017-Sep-20 03:00N 28°18' W 015°44'816.0
2017-Sep-20 02:30N 28°21' W 015°52'816.0
2017-Sep-20 02:01N 28°24' W 016°01'816.1
2017-Sep-20 01:30N 28°27' W 016°09'4 6.6
2017-Sep-20 00:52N 28°29' W 016°13'0 0.0
2017-Sep-20 00:22N 28°29' W 016°13'0 0.0
2017-Sep-19 23:49N 28°29' W 016°13'0 0.0
2017-Sep-19 23:22N 28°29' W 016°13'0 0.0
2017-Sep-19 22:52N 28°29' W 016°13'0 0.0
2017-Sep-19 22:25N 28°29' W 016°13'0 0.0
2017-Sep-19 21:55N 28°29' W 016°13'0 0.0
2017-Sep-19 21:22N 28°29' W 016°13'0 0.0
2017-Sep-19 20:55N 28°29' W 016°13'0 0.0
2017-Sep-19 20:22N 28°29' W 016°13'0 0.0
2017-Sep-19 19:55N 28°29' W 016°13'0 0.0
2017-Sep-19 19:25N 28°29' W 016°13'0 0.0
2017-Sep-19 18:52N 28°29' W 016°13'0 0.1
2017-Sep-19 18:30N 28°29' W 016°13'1 2.1
2017-Sep-19 18:00N 28°29' W 016°12'2 3.2
2017-Sep-19 17:30N 28°29' W 016°10'2 3.1
2017-Sep-19 17:00N 28°28' W 016°12'0 0.4
2017-Sep-19 16:30N 28°28' W 016°12'2 3.6
2017-Sep-19 16:00N 28°29' W 016°10'815.6
2017-Sep-19 15:30N 28°33' W 016°03'815.8
2017-Sep-19 15:00N 28°38' W 015°56'815.7
2017-Sep-19 14:29N 28°43' W 015°49'815.8
2017-Sep-19 14:00N 28°48' W 015°42'815.6
2017-Sep-19 13:30N 28°53' W 015°35'815.7
2017-Sep-19 13:00N 28°58' W 015°28'815.8
2017-Sep-19 12:30N 29°03' W 015°21'815.6
2017-Sep-19 12:00N 29°08' W 015°14'815.4
2017-Sep-19 11:30N 29°13' W 015°08'815.5
2017-Sep-19 11:00N 29°18' W 015°01'815.7
2017-Sep-19 10:30N 29°23' W 014°54'816.1
2017-Sep-19 10:01N 29°28' W 014°47'816.4
2017-Sep-19 09:31N 29°34' W 014°40'816.1
2017-Sep-19 08:59N 29°39' W 014°33'815.9
2017-Sep-19 08:29N 29°45' W 014°26'815.8
2017-Sep-19 08:01N 29°50' W 014°20'816.2
2017-Sep-19 07:30N 29°55' W 014°12'1016.4
2017-Sep-19 06:52N 30°02' W 014°04'1316.4
2017-Sep-19 06:06N 30°10' W 013°52'116.6
2017-Sep-19 06:01N 30°11' W 013°51'816.8
2017-Sep-19 05:30N 30°17' W 013°44'816.8
2017-Sep-19 05:01N 30°22' W 013°37'1816.8
2017-Sep-19 03:57N 30°34' W 013°21'816.9
2017-Sep-19 03:30N 30°39' W 013°14'1616.5
2017-Sep-19 02:33N 30°50' W 013°01'116.3
2017-Sep-19 02:28N 30°51' W 012°60'816.6
2017-Sep-19 02:00N 30°56' W 012°53'816.6
2017-Sep-19 01:30N 31°01' W 012°46'1116.6
2017-Sep-19 00:50N 31°09' W 012°36'34616.8
2017-Sep-18 04:14N 34°56' W 007°24'516.3
2017-Sep-18 03:56N 34°59' W 007°20'716.2
2017-Sep-18 03:30N 35°04' W 007°13'9516.7
2017-Sep-17 21:47N 35°58' W 005°37'415.9
2017-Sep-17 21:30N 35°59' W 005°31'714.2
2017-Sep-17 21:00N 36°01' W 005°23'713.2
2017-Sep-17 20:31N 36°04' W 005°15'214 9.7
2017-Sep-16 22:25N 37°14' W 001°04'1516.9
2017-Sep-16 21:32N 37°24' W 000°49'016.9
2017-Sep-16 21:31N 37°24' W 000°49'917.0
2017-Sep-16 21:01N 37°29' W 000°41'917.1
2017-Sep-16 20:31N 37°35' W 000°33'816.6
2017-Sep-16 20:01N 37°43' W 000°31'816.6
2017-Sep-16 19:31N 37°51' W 000°30'816.4
2017-Sep-16 19:01N 37°59' W 000°28'130 8.3
2017-Sep-16 03:21N 39°47' E 001°06'617.2
2017-Sep-16 03:00N 39°53' E 001°10'817.1
2017-Sep-16 02:31N 40°00' E 001°15'917.3
2017-Sep-16 02:01N 40°08' E 001°20'917.6
2017-Sep-16 01:30N 40°16' E 001°25'817.1
2017-Sep-16 01:01N 40°23' E 001°30'816.7
2017-Sep-16 00:30N 40°31' E 001°36'816.6
2017-Sep-16 00:00N 40°38' E 001°41'816.6
2017-Sep-15 23:30N 40°45' E 001°46'1016.6
2017-Sep-15 22:55N 40°54' E 001°52'816.7
2017-Sep-15 22:28N 41°00' E 001°57'816.9
2017-Sep-15 22:00N 41°07' E 002°03'137 6.6
2017-Sep-15 01:25N 42°40' E 004°17'716.9
2017-Sep-15 01:00N 42°42' E 004°26'817.0
2017-Sep-15 00:31N 42°44' E 004°37'816.9
2017-Sep-15 00:00N 42°45' E 004°49'816.8
2017-Sep-14 23:30N 42°46' E 005°00'816.9
2017-Sep-14 23:00N 42°48' E 005°12'816.7
2017-Sep-14 22:30N 42°49' E 005°23'5816.1
2017-Sep-14 18:54N 42°58' E 006°41'716.8
2017-Sep-14 18:30N 43°03' E 006°48'816.8
2017-Sep-14 18:00N 43°08' E 006°56'816.6
2017-Sep-14 17:30N 43°14' E 007°05'816.7
2017-Sep-14 17:00N 43°20' E 007°13'816.4
2017-Sep-14 16:30N 43°25' E 007°22'816.2
2017-Sep-14 16:00N 43°31' E 007°30'815.4
2017-Sep-14 15:31N 43°36' E 007°38'914.6
2017-Sep-14 14:54N 43°42' E 007°47'614.7
2017-Sep-14 14:28N 43°45' E 007°54'1314.9
2017-Sep-14 13:36N 43°52' E 008°10'315.2
2017-Sep-14 13:23N 43°54' E 008°13'615.1
2017-Sep-14 13:00N 43°57' E 008°19'714.7
2017-Sep-14 12:30N 44°02' E 008°27'713.9
2017-Sep-14 12:00N 44°07' E 008°34'714.8
2017-Sep-14 11:31N 44°11' E 008°42'816.0
2017-Sep-14 11:00N 44°16' E 008°51'713.7
2017-Sep-14 10:31N 44°22' E 008°57'4 7.3
2017-Sep-14 10:01N 44°24' E 008°53'0 0.6
2017-Sep-14 09:30N 44°24' E 008°53'0 0.0
2017-Sep-14 09:00N 44°24' E 008°53'0 0.0
2017-Sep-14 08:30N 44°24' E 008°53'0 0.0
2017-Sep-14 08:00N 44°24' E 008°53'0 0.0
2017-Sep-14 07:30N 44°24' E 008°53'0 0.0
2017-Sep-14 07:00N 44°24' E 008°53'0 0.0
2017-Sep-14 06:24N 44°24' E 008°53'0 0.0
2017-Sep-14 05:54N 44°24' E 008°53'0 0.0
2017-Sep-14 05:27N 44°24' E 008°53'0 0.0
2017-Sep-14 04:57N 44°24' E 008°53'0 0.0
2017-Sep-14 04:27N 44°24' E 008°53'0 0.0
2017-Sep-14 03:57N 44°24' E 008°53'0 0.0
2017-Sep-14 03:24N 44°24' E 008°53'0 0.0
2017-Sep-14 02:54N 44°24' E 008°53'0 0.0
2017-Sep-14 02:24N 44°24' E 008°53'0 0.0
2017-Sep-14 01:57N 44°24' E 008°53'0 0.0
2017-Sep-14 01:24N 44°24' E 008°53'0 0.0
2017-Sep-14 00:57N 44°24' E 008°53'0 0.0
2017-Sep-14 00:30N 44°24' E 008°53'0 0.0
2017-Sep-14 00:00N 44°24' E 008°53'0 0.0
2017-Sep-13 23:27N 44°24' E 008°53'0 0.0
2017-Sep-13 22:57N 44°24' E 008°53'0 0.0
2017-Sep-13 22:30N 44°24' E 008°53'1 1.0
2017-Sep-13 22:00N 44°24' E 008°54'4 7.1
2017-Sep-13 21:30N 44°22' E 008°58'1 2.4
2017-Sep-13 21:01N 44°21' E 008°58'815.2
2017-Sep-13 20:30N 44°15' E 008°51'816.6
2017-Sep-13 20:01N 44°10' E 008°42'816.7
2017-Sep-13 19:30N 44°05' E 008°33'816.6
2017-Sep-13 19:00N 43°60' E 008°24'4816.2
2017-Sep-13 16:05N 43°29' E 007°33'116.5
2017-Sep-13 16:00N 43°29' E 007°32'1316.4
2017-Sep-13 15:14N 43°20' E 007°19'416.7
2017-Sep-13 15:01N 43°18' E 007°15'816.8
2017-Sep-13 14:31N 43°12' E 007°06'5716.5
2017-Sep-13 11:05N 42°42' E 006°01'417.0
2017-Sep-13 10:52N 42°41' E 005°56'617.0
2017-Sep-13 10:30N 42°38' E 005°49'917.2
2017-Sep-13 10:00N 42°34' E 005°38'917.0
2017-Sep-13 09:29N 42°30' E 005°28'816.9
2017-Sep-13 09:00N 42°26' E 005°18'162 8.3
2017-Sep-12 13:27N 41°12' E 002°05'715.4
2017-Sep-12 13:00N 41°09' E 001°56'815.5
2017-Sep-12 12:30N 41°07' E 001°46'815.6
2017-Sep-12 12:00N 41°05' E 001°36'33 4.4
2017-Sep-12 04:37N 40°40' E 001°08'214.3
2017-Sep-12 04:29N 40°38' E 001°08'714.5
2017-Sep-12 03:59N 40°31' E 001°06'714.6
2017-Sep-12 03:30N 40°24' E 001°04'714.7
2017-Sep-12 03:00N 40°17' E 001°02'714.6
2017-Sep-12 02:30N 40°10' E 001°00'714.8
2017-Sep-12 02:00N 40°03' E 000°59'  
Track history (hours):
 
Tides and Currents Weather Stations Pressure Air Temp Water Temp Dewpoint Dewpoint Depression Visibility Wind Speed Wind Dir Waves Ship Positions

Neuburg

Last reported at 2017-Sep-22 01:55 UTC. Time now 2017-Sep-22 06:28 UTC.
Position N 28°08' W 015°25'.

Length 142 m; draft 5.7 m.

Type: Ship (hazmat cat A). MMSI: 212740000.

Date/timePositionNaut miles runAvg speedWind from/ knotsBaromVisibWave heightAir tempDewpointWater temp
2017-Sep-22 01:55N 28°08' W 015°25'0 0.0
2017-Sep-22 01:28N 28°08' W 015°25'0 0.0
2017-Sep-22 00:58N 28°08' W 015°25'0 0.0
2017-Sep-22 00:28N 28°08' W 015°25'0 0.0
2017-Sep-21 23:58N 28°08' W 015°25'0 0.0
2017-Sep-21 23:28N 28°08' W 015°25'0 0.0
2017-Sep-21 22:58N 28°08' W 015°25'0 0.0
2017-Sep-21 22:28N 28°08' W 015°25'0 0.0
2017-Sep-21 21:58N 28°08' W 015°25'0 0.0
2017-Sep-21 21:28N 28°08' W 015°25'0 0.0
2017-Sep-21 20:58N 28°08' W 015°25'0 0.0
2017-Sep-21 20:28N 28°08' W 015°25'0 0.0
2017-Sep-21 19:58N 28°08' W 015°25'0 0.0
2017-Sep-21 19:28N 28°08' W 015°25'0 0.0
2017-Sep-21 18:58N 28°08' W 015°25'0 0.0
2017-Sep-21 18:28N 28°08' W 015°25'0 0.3
2017-Sep-21 17:59N 28°08' W 015°25'1 1.8
2017-Sep-21 17:23N 28°09' W 015°24'0 0.0
2017-Sep-21 16:53N 28°09' W 015°24'0 0.0
2017-Sep-21 16:23N 28°09' W 015°24'0 0.0
2017-Sep-21 15:53N 28°09' W 015°24'0 0.0
2017-Sep-21 15:23N 28°09' W 015°24'0 0.0
2017-Sep-21 14:53N 28°09' W 015°24'0 0.0
2017-Sep-21 14:23N 28°09' W 015°24'0 0.0
2017-Sep-21 13:53N 28°09' W 015°24'0 0.0
2017-Sep-21 13:23N 28°09' W 015°24'0 0.0
2017-Sep-21 12:56N 28°09' W 015°24'0 0.0
2017-Sep-21 12:26N 28°09' W 015°24'0 0.0
2017-Sep-21 11:56N 28°09' W 015°24'0 0.0
2017-Sep-21 11:26N 28°09' W 015°24'0 0.0
2017-Sep-21 10:41N 28°09' W 015°24'0 0.0
2017-Sep-21 10:26N 28°09' W 015°24'0 0.0
2017-Sep-21 09:56N 28°09' W 015°24'0 0.0
2017-Sep-21 09:26N 28°09' W 015°24'0 0.0
2017-Sep-21 08:56N 28°09' W 015°24'0 0.0
2017-Sep-21 08:29N 28°09' W 015°24'0 0.0
2017-Sep-21 07:59N 28°09' W 015°24'0 0.0
2017-Sep-21 07:29N 28°09' W 015°24'1 2.4
2017-Sep-21 07:00N 28°07' W 015°24'2 4.4
2017-Sep-21 06:30N 28°07' W 015°22'611.8
2017-Sep-21 06:00N 28°10' W 015°16'816.9
2017-Sep-21 05:30N 28°15' W 015°09'917.5
2017-Sep-21 05:00N 28°20' W 015°00'917.2
2017-Sep-21 04:30N 28°24' W 014°52'917.0
2017-Sep-21 04:00N 28°28' W 014°43'917.4
2017-Sep-21 03:30N 28°32' W 014°34'4416.9
2017-Sep-21 00:54N 28°49' W 013°48'717.3
2017-Sep-21 00:30N 28°52' W 013°41'917.1
2017-Sep-21 00:00N 28°56' W 013°33'2 1.1
2017-Sep-20 22:01N 28°58' W 013°32'0 0.0
2017-Sep-20 21:49N 28°58' W 013°32'0 0.0
2017-Sep-20 20:13N 28°58' W 013°32'0 0.0
2017-Sep-20 19:31N 28°58' W 013°32'0 0.0
2017-Sep-20 19:25N 28°58' W 013°32'0 0.5
2017-Sep-20 19:00N 28°58' W 013°32'4 7.7
2017-Sep-20 18:31N 28°55' W 013°35'815.6
2017-Sep-20 18:00N 28°51' W 013°42'3516.0
2017-Sep-20 15:47N 28°37' W 014°19'515.8
2017-Sep-20 15:28N 28°35' W 014°24'815.9
2017-Sep-20 15:00N 28°31' W 014°32'1615.9
2017-Sep-20 14:01N 28°24' W 014°48'816.1
2017-Sep-20 13:31N 28°20' W 014°56'815.9
2017-Sep-20 13:01N 28°17' W 015°04'816.3
2017-Sep-20 12:31N 28°13' W 015°12'816.4
2017-Sep-20 12:01N 28°09' W 015°20'4 8.6
2017-Sep-20 11:30N 28°08' W 015°25'0 0.0
2017-Sep-20 10:53N 28°08' W 015°25'0 0.0
2017-Sep-20 10:23N 28°08' W 015°25'0 0.0
2017-Sep-20 09:53N 28°08' W 015°25'0 0.0
2017-Sep-20 09:26N 28°08' W 015°25'0 0.0
2017-Sep-20 08:56N 28°08' W 015°25'0 0.0
2017-Sep-20 08:26N 28°08' W 015°25'0 0.0
2017-Sep-20 07:56N 28°08' W 015°25'0 0.0
2017-Sep-20 07:26N 28°08' W 015°25'0 0.0
2017-Sep-20 06:56N 28°08' W 015°25'0 0.0
2017-Sep-20 06:26N 28°08' W 015°25'0 0.0
2017-Sep-20 05:56N 28°08' W 015°25'0 0.0
2017-Sep-20 05:26N 28°08' W 015°25'0 0.0
2017-Sep-20 05:00N 28°08' W 015°25'2 3.8
2017-Sep-20 04:30N 28°07' W 015°23'612.7
2017-Sep-20 04:00N 28°13' W 015°26'816.2
2017-Sep-20 03:30N 28°15' W 015°35'816.2
2017-Sep-20 03:00N 28°18' W 015°44'816.0
2017-Sep-20 02:30N 28°21' W 015°52'816.0
2017-Sep-20 02:01N 28°24' W 016°01'816.1
2017-Sep-20 01:30N 28°27' W 016°09'4 6.6
2017-Sep-20 00:52N 28°29' W 016°13'0 0.0
2017-Sep-20 00:22N 28°29' W 016°13'0 0.0
2017-Sep-19 23:49N 28°29' W 016°13'0 0.0
2017-Sep-19 23:22N 28°29' W 016°13'0 0.0
2017-Sep-19 22:52N 28°29' W 016°13'0 0.0
2017-Sep-19 22:25N 28°29' W 016°13'0 0.0
2017-Sep-19 21:55N 28°29' W 016°13'0 0.0
2017-Sep-19 21:22N 28°29' W 016°13'0 0.0
2017-Sep-19 20:55N 28°29' W 016°13'0 0.0
2017-Sep-19 20:22N 28°29' W 016°13'0 0.0
2017-Sep-19 19:55N 28°29' W 016°13'0 0.0
2017-Sep-19 19:25N 28°29' W 016°13'0 0.0
2017-Sep-19 18:52N 28°29' W 016°13'0 0.1
2017-Sep-19 18:30N 28°29' W 016°13'1 2.1
2017-Sep-19 18:00N 28°29' W 016°12'2 3.2
2017-Sep-19 17:30N 28°29' W 016°10'2 3.1
2017-Sep-19 17:00N 28°28' W 016°12'0 0.4
2017-Sep-19 16:30N 28°28' W 016°12'2 3.6
2017-Sep-19 16:00N 28°29' W 016°10'815.6
2017-Sep-19 15:30N 28°33' W 016°03'815.8
2017-Sep-19 15:00N 28°38' W 015°56'815.7
2017-Sep-19 14:29N 28°43' W 015°49'815.8
2017-Sep-19 14:00N 28°48' W 015°42'815.6
2017-Sep-19 13:30N 28°53' W 015°35'815.7
2017-Sep-19 13:00N 28°58' W 015°28'815.8
2017-Sep-19 12:30N 29°03' W 015°21'815.6
2017-Sep-19 12:00N 29°08' W 015°14'815.4
2017-Sep-19 11:30N 29°13' W 015°08'815.5
2017-Sep-19 11:00N 29°18' W 015°01'815.7
2017-Sep-19 10:30N 29°23' W 014°54'816.1
2017-Sep-19 10:01N 29°28' W 014°47'816.4
2017-Sep-19 09:31N 29°34' W 014°40'816.1
2017-Sep-19 08:59N 29°39' W 014°33'815.9
2017-Sep-19 08:29N 29°45' W 014°26'815.8
2017-Sep-19 08:01N 29°50' W 014°20'816.2
2017-Sep-19 07:30N 29°55' W 014°12'1016.4
2017-Sep-19 06:52N 30°02' W 014°04'1316.4
2017-Sep-19 06:06N 30°10' W 013°52'116.6
2017-Sep-19 06:01N 30°11' W 013°51'816.8
2017-Sep-19 05:30N 30°17' W 013°44'816.8
2017-Sep-19 05:01N 30°22' W 013°37'1816.8
2017-Sep-19 03:57N 30°34' W 013°21'816.9
2017-Sep-19 03:30N 30°39' W 013°14'1616.5
2017-Sep-19 02:33N 30°50' W 013°01'116.3
2017-Sep-19 02:28N 30°51' W 012°60'816.6
2017-Sep-19 02:00N 30°56' W 012°53'816.6
2017-Sep-19 01:30N 31°01' W 012°46'1116.6
2017-Sep-19 00:50N 31°09' W 012°36'34616.8
2017-Sep-18 04:14N 34°56' W 007°24'516.3
2017-Sep-18 03:56N 34°59' W 007°20'716.2
2017-Sep-18 03:30N 35°04' W 007°13'9516.7
2017-Sep-17 21:47N 35°58' W 005°37'415.9
2017-Sep-17 21:30N 35°59' W 005°31'714.2
2017-Sep-17 21:00N 36°01' W 005°23'713.2
2017-Sep-17 20:31N 36°04' W 005°15'214 9.7
2017-Sep-16 22:25N 37°14' W 001°04'1516.9
2017-Sep-16 21:32N 37°24' W 000°49'016.9
2017-Sep-16 21:31N 37°24' W 000°49'917.0
2017-Sep-16 21:01N 37°29' W 000°41'917.1
2017-Sep-16 20:31N 37°35' W 000°33'816.6
2017-Sep-16 20:01N 37°43' W 000°31'816.6
2017-Sep-16 19:31N 37°51' W 000°30'816.4
2017-Sep-16 19:01N 37°59' W 000°28'130 8.3
2017-Sep-16 03:21N 39°47' E 001°06'617.2
2017-Sep-16 03:00N 39°53' E 001°10'817.1
2017-Sep-16 02:31N 40°00' E 001°15'917.3
2017-Sep-16 02:01N 40°08' E 001°20'917.6
2017-Sep-16 01:30N 40°16' E 001°25'817.1
2017-Sep-16 01:01N 40°23' E 001°30'816.7
2017-Sep-16 00:30N 40°31' E 001°36'816.6
2017-Sep-16 00:00N 40°38' E 001°41'816.6
2017-Sep-15 23:30N 40°45' E 001°46'1016.6
2017-Sep-15 22:55N 40°54' E 001°52'816.7
2017-Sep-15 22:28N 41°00' E 001°57'816.9
2017-Sep-15 22:00N 41°07' E 002°03'137 6.6
2017-Sep-15 01:25N 42°40' E 004°17'716.9
2017-Sep-15 01:00N 42°42' E 004°26'817.0
2017-Sep-15 00:31N 42°44' E 004°37'816.9
2017-Sep-15 00:00N 42°45' E 004°49'816.8
2017-Sep-14 23:30N 42°46' E 005°00'816.9
2017-Sep-14 23:00N 42°48' E 005°12'816.7
2017-Sep-14 22:30N 42°49' E 005°23'5816.1
2017-Sep-14 18:54N 42°58' E 006°41'716.8
2017-Sep-14 18:30N 43°03' E 006°48'816.8
2017-Sep-14 18:00N 43°08' E 006°56'816.6
2017-Sep-14 17:30N 43°14' E 007°05'816.7
2017-Sep-14 17:00N 43°20' E 007°13'816.4
2017-Sep-14 16:30N 43°25' E 007°22'816.2
2017-Sep-14 16:00N 43°31' E 007°30'815.4
2017-Sep-14 15:31N 43°36' E 007°38'914.6
2017-Sep-14 14:54N 43°42' E 007°47'614.7
2017-Sep-14 14:28N 43°45' E 007°54'1314.9
2017-Sep-14 13:36N 43°52' E 008°10'315.2
2017-Sep-14 13:23N 43°54' E 008°13'615.1
2017-Sep-14 13:00N 43°57' E 008°19'714.7
2017-Sep-14 12:30N 44°02' E 008°27'713.9
2017-Sep-14 12:00N 44°07' E 008°34'714.8
2017-Sep-14 11:31N 44°11' E 008°42'816.0
2017-Sep-14 11:00N 44°16' E 008°51'713.7
2017-Sep-14 10:31N 44°22' E 008°57'4 7.3
2017-Sep-14 10:01N 44°24' E 008°53'0 0.6
2017-Sep-14 09:30N 44°24' E 008°53'0 0.0
2017-Sep-14 09:00N 44°24' E 008°53'0 0.0
2017-Sep-14 08:30N 44°24' E 008°53'0 0.0
2017-Sep-14 08:00N 44°24' E 008°53'0 0.0
2017-Sep-14 07:30N 44°24' E 008°53'0 0.0
2017-Sep-14 07:00N 44°24' E 008°53'0 0.0
2017-Sep-14 06:24N 44°24' E 008°53'0 0.0
2017-Sep-14 05:54N 44°24' E 008°53'0 0.0
2017-Sep-14 05:27N 44°24' E 008°53'0 0.0
2017-Sep-14 04:57N 44°24' E 008°53'0 0.0
2017-Sep-14 04:27N 44°24' E 008°53'0 0.0
2017-Sep-14 03:57N 44°24' E 008°53'0 0.0
2017-Sep-14 03:24N 44°24' E 008°53'0 0.0
2017-Sep-14 02:54N 44°24' E 008°53'0 0.0
2017-Sep-14 02:24N 44°24' E 008°53'0 0.0
2017-Sep-14 01:57N 44°24' E 008°53'0 0.0
2017-Sep-14 01:24N 44°24' E 008°53'0 0.0
2017-Sep-14 00:57N 44°24' E 008°53'0 0.0
2017-Sep-14 00:30N 44°24' E 008°53'0 0.0
2017-Sep-14 00:00N 44°24' E 008°53'0 0.0
2017-Sep-13 23:27N 44°24' E 008°53'0 0.0
2017-Sep-13 22:57N 44°24' E 008°53'0 0.0
2017-Sep-13 22:30N 44°24' E 008°53'1 1.0
2017-Sep-13 22:00N 44°24' E 008°54'4 7.1
2017-Sep-13 21:30N 44°22' E 008°58'1 2.4
2017-Sep-13 21:01N 44°21' E 008°58'815.2
2017-Sep-13 20:30N 44°15' E 008°51'816.6
2017-Sep-13 20:01N 44°10' E 008°42'816.7
2017-Sep-13 19:30N 44°05' E 008°33'816.6
2017-Sep-13 19:00N 43°60' E 008°24'4816.2
2017-Sep-13 16:05N 43°29' E 007°33'116.5
2017-Sep-13 16:00N 43°29' E 007°32'1316.4
2017-Sep-13 15:14N 43°20' E 007°19'416.7
2017-Sep-13 15:01N 43°18' E 007°15'816.8
2017-Sep-13 14:31N 43°12' E 007°06'5716.5
2017-Sep-13 11:05N 42°42' E 006°01'417.0
2017-Sep-13 10:52N 42°41' E 005°56'617.0
2017-Sep-13 10:30N 42°38' E 005°49'917.2
2017-Sep-13 10:00N 42°34' E 005°38'917.0
2017-Sep-13 09:29N 42°30' E 005°28'816.9
2017-Sep-13 09:00N 42°26' E 005°18'162 8.3
2017-Sep-12 13:27N 41°12' E 002°05'715.4
2017-Sep-12 13:00N 41°09' E 001°56'815.5
2017-Sep-12 12:30N 41°07' E 001°46'815.6
2017-Sep-12 12:00N 41°05' E 001°36'33 4.4
2017-Sep-12 04:37N 40°40' E 001°08'214.3
2017-Sep-12 04:29N 40°38' E 001°08'714.5
2017-Sep-12 03:59N 40°31' E 001°06'714.6
2017-Sep-12 03:30N 40°24' E 001°04'714.7
2017-Sep-12 03:00N 40°17' E 001°02'714.6
2017-Sep-12 02:30N 40°10' E 001°00'714.8
2017-Sep-12 02:00N 40°03' E 000°59'  

Dump ship's entire track history